createdAt,value
2023-03-21T00:00:47.484Z,99926.88
2023-03-21T00:03:15.476Z,99922.34
2023-03-21T00:05:44.428Z,99921.59
2023-03-21T00:08:11.688Z,99926.34
2023-03-21T00:10:43.464Z,99918.22
2023-03-21T00:13:11.587Z,99919.50
2023-03-21T00:15:46.271Z,99925.09
2023-03-21T00:18:20.131Z,99913.84
2023-03-21T00:21:09.764Z,99916.56
2023-03-21T00:23:43.849Z,99921.41
2023-03-21T00:26:11.107Z,99909.53
2023-03-21T00:28:39.474Z,99915.97
2023-03-21T00:31:07.262Z,99906.84
2023-03-21T00:33:36.697Z,99912.25
2023-03-21T00:36:12.585Z,99901.28
2023-03-21T00:38:40.043Z,99906.53
2023-03-21T00:41:19.258Z,99905.25
2023-03-21T00:43:48.480Z,99906.78
2023-03-21T00:46:15.709Z,99906.50
2023-03-21T00:48:44.288Z,99904.66
2023-03-21T00:51:14.240Z,99903.34
2023-03-21T00:53:42.066Z,99903.03
2023-03-21T00:56:09.690Z,99895.63
2023-03-21T00:58:36.826Z,99885.44
2023-03-21T01:01:04.649Z,99888.16
2023-03-21T01:03:33.599Z,99885.31
2023-03-21T01:06:02.123Z,99884.28
2023-03-21T01:08:38.188Z,99875.88
2023-03-21T01:11:14.099Z,99875.19
2023-03-21T01:13:51.194Z,99873.31
2023-03-21T01:16:24.259Z,99865.75
2023-03-21T01:18:51.469Z,99871.16
2023-03-21T01:21:20.027Z,99868.25
2023-03-21T01:23:47.670Z,99865.88
2023-03-21T01:26:15.580Z,99874.56
2023-03-21T01:28:45.044Z,99870.81
2023-03-21T01:31:14.783Z,99869.66
2023-03-21T01:33:43.038Z,99870.81
2023-03-21T01:36:15.124Z,99879.53
2023-03-21T01:38:44.462Z,99880.38
2023-03-21T01:41:22.047Z,99879.19
2023-03-21T01:43:50.260Z,99880.22
2023-03-21T01:46:30.236Z,99872.94
2023-03-21T01:49:26.798Z,99875.03
2023-03-21T01:52:12.179Z,99866.22
2023-03-21T01:54:44.352Z,99864.31
2023-03-21T01:57:16.756Z,99865.19
2023-03-21T01:59:47.761Z,99866.50
2023-03-21T02:02:29.126Z,99855.50
2023-03-21T02:05:08.294Z,99862.25
2023-03-21T02:07:36.943Z,99856.53
2023-03-21T02:10:10.037Z,99849.94
2023-03-21T02:12:40.106Z,99856.03
2023-03-21T02:15:09.515Z,99843.34
2023-03-21T02:17:56.480Z,99840.94
2023-03-21T02:20:54.880Z,99834.91
2023-03-21T02:24:19.724Z,99830.16
2023-03-21T02:27:04.036Z,99821.66
2023-03-21T02:30:45.626Z,99821.34
2023-03-21T02:33:43.381Z,99816.91
2023-03-21T02:36:27.888Z,99819.47
2023-03-21T02:39:01.767Z,99821.16
2023-03-21T02:41:40.576Z,99815.34
2023-03-21T02:44:16.751Z,99814.69
2023-03-21T02:46:56.352Z,99816.69
2023-03-21T02:49:31.094Z,99815.13
2023-03-21T02:52:08.555Z,99817.00
2023-03-21T02:54:48.311Z,99823.56
2023-03-21T02:57:21.286Z,99827.44
2023-03-21T02:59:56.866Z,99824.03
2023-03-21T03:02:31.867Z,99819.31
2023-03-21T03:04:59.056Z,99816.59
2023-03-21T03:07:44.386Z,99811.72
2023-03-21T03:10:31.391Z,99810.56
2023-03-21T03:13:11.319Z,99808.88
2023-03-21T03:15:47.058Z,99797.00
2023-03-21T03:18:20.774Z,99801.56
2023-03-21T03:21:00.006Z,99800.47
2023-03-21T03:23:33.638Z,99800.47
2023-03-21T03:26:06.598Z,99803.38
2023-03-21T03:28:38.973Z,99816.75
2023-03-21T03:31:15.141Z,99810.09
2023-03-21T03:33:51.461Z,99814.50
2023-03-21T03:36:31.693Z,99812.81
2023-03-21T03:39:05.413Z,99814.66
2023-03-21T03:42:04.440Z,99814.66
2023-03-21T03:44:32.769Z,99807.41
2023-03-21T03:47:07.906Z,99803.81
2023-03-21T03:49:41.985Z,99804.84
2023-03-21T03:52:16.010Z,99806.69
2023-03-21T03:54:52.221Z,99810.09
2023-03-21T03:57:25.120Z,99809.53
2023-03-21T03:59:52.840Z,99806.81
2023-03-21T04:02:24.595Z,99799.56
2023-03-21T04:04:52.407Z,99798.16
2023-03-21T04:07:20.375Z,99809.00
2023-03-21T04:09:48.975Z,99803.44
2023-03-21T04:12:19.357Z,99803.28
2023-03-21T04:15:20.427Z,99810.56
2023-03-21T04:17:56.193Z,99806.53
2023-03-21T04:20:36.223Z,99798.25
2023-03-21T04:23:05.160Z,99793.13
2023-03-21T04:25:34.687Z,99795.69
2023-03-21T04:28:04.274Z,99793.84
2023-03-21T04:31:02.242Z,99785.38
2023-03-21T04:33:37.893Z,99792.81
2023-03-21T04:36:07.271Z,99791.44
2023-03-21T04:38:34.624Z,99791.56
2023-03-21T04:41:04.233Z,99795.16
2023-03-21T04:43:31.618Z,99795.84
2023-03-21T04:46:00.153Z,99789.72
2023-03-21T04:48:27.879Z,99792.28
2023-03-21T04:50:55.081Z,99797.88
2023-03-21T04:53:22.289Z,99791.56
2023-03-21T04:55:52.482Z,99791.56
2023-03-21T04:58:21.322Z,99791.72
2023-03-21T05:00:48.573Z,99792.88
2023-03-21T05:03:17.076Z,99790.31
2023-03-21T05:05:44.266Z,99790.66
2023-03-21T05:08:11.653Z,99786.69
2023-03-21T05:10:39.277Z,99787.16
2023-03-21T05:13:06.601Z,99789.22
2023-03-21T05:15:33.837Z,99787.81
2023-03-21T05:18:01.374Z,99786.16
2023-03-21T05:20:29.937Z,99781.78
2023-03-21T05:22:57.113Z,99784.25
2023-03-21T05:25:24.291Z,99781.59
2023-03-21T05:28:14.597Z,99787.28
2023-03-21T05:30:43.040Z,99793.56
2023-03-21T05:33:10.309Z,99785.72
2023-03-21T05:35:39.578Z,99789.31
2023-03-21T05:38:09.555Z,99795.41
2023-03-21T05:40:47.832Z,99801.22
2023-03-21T05:43:15.027Z,99796.06
2023-03-21T05:45:42.681Z,99793.53
2023-03-21T05:48:10.229Z,99797.31
2023-03-21T05:50:54.800Z,99793.63
2023-03-21T05:53:23.413Z,99793.16
2023-03-21T05:55:50.772Z,99797.44
2023-03-21T05:58:37.181Z,99797.13
2023-03-21T06:01:05.364Z,99795.69
2023-03-21T06:03:35.459Z,99796.50
2023-03-21T06:06:08.288Z,99804.34
2023-03-21T06:08:45.329Z,99798.06
2023-03-21T06:11:23.087Z,99800.22
2023-03-21T06:13:52.333Z,99802.31
2023-03-21T06:16:22.826Z,99802.41
2023-03-21T06:18:51.375Z,99798.47
2023-03-21T06:21:31.797Z,99784.53
2023-03-21T06:23:58.965Z,99779.34
2023-03-21T06:26:26.098Z,99778.56
2023-03-21T06:28:54.733Z,99779.66
2023-03-21T06:31:22.353Z,99781.25
2023-03-21T06:33:49.668Z,99778.69
2023-03-21T06:36:16.979Z,99782.50
2023-03-21T06:38:45.631Z,99779.38
2023-03-21T06:41:13.545Z,99778.50
2023-03-21T06:43:45.793Z,99784.16
2023-03-21T06:46:13.034Z,99792.69
2023-03-21T06:48:40.309Z,99801.31
2023-03-21T06:51:07.712Z,99796.28
2023-03-21T06:53:38.316Z,99806.47
2023-03-21T06:56:36.263Z,99817.31
2023-03-21T06:59:04.576Z,99808.53
2023-03-21T07:02:01.100Z,99817.66
2023-03-21T07:04:29.296Z,99812.78
2023-03-21T07:06:57.890Z,99819.38
2023-03-21T07:09:26.653Z,99816.63
2023-03-21T07:11:56.392Z,99820.13
2023-03-21T07:14:27.165Z,99819.84
2023-03-21T07:16:54.446Z,99819.84
2023-03-21T07:19:21.657Z,99822.91
2023-03-21T07:21:48.885Z,99814.41
2023-03-21T07:24:16.099Z,99820.16
2023-03-21T07:26:43.333Z,99820.16
2023-03-21T07:29:12.177Z,99816.72
2023-03-21T07:31:40.590Z,99822.97
2023-03-21T07:34:08.104Z,99817.53
2023-03-21T07:36:35.352Z,99814.06
2023-03-21T07:39:02.646Z,99808.38
2023-03-21T07:41:30.598Z,99816.97
2023-03-21T07:44:11.849Z,99814.63
2023-03-21T07:46:39.025Z,99817.75
2023-03-21T07:49:06.264Z,99807.34
2023-03-21T07:51:33.413Z,99802.28
2023-03-21T07:54:00.614Z,99810.81
2023-03-21T07:56:27.847Z,99815.94
2023-03-21T07:58:55.051Z,99813.41
2023-03-21T08:01:23.659Z,99806.25
2023-03-21T08:03:50.983Z,99807.31
2023-03-21T08:06:18.155Z,99809.06
2023-03-21T08:08:45.352Z,99809.97
2023-03-21T08:11:13.307Z,99808.81
2023-03-21T08:13:40.922Z,99797.81
2023-03-21T08:16:08.982Z,99801.94
2023-03-21T08:18:37.497Z,99800.13
2023-03-21T08:21:05.132Z,99803.38
2023-03-21T08:23:32.298Z,99791.50
2023-03-21T08:25:59.551Z,99788.44
2023-03-21T08:28:27.138Z,99798.25
2023-03-21T08:30:54.440Z,99791.34
2023-03-21T08:33:21.830Z,99801.72
2023-03-21T08:35:50.375Z,99796.59
2023-03-21T08:38:17.566Z,99783.97
2023-03-21T08:40:44.841Z,99788.44
2023-03-21T08:43:14.652Z,99791.38
2023-03-21T08:45:42.089Z,99790.09
2023-03-21T08:48:09.340Z,99794.16
2023-03-21T08:50:36.539Z,99787.00
2023-03-21T08:53:05.218Z,99792.97
2023-03-21T08:55:32.438Z,99791.38
2023-03-21T08:57:59.736Z,99788.09
2023-03-21T09:00:26.939Z,99785.44
2023-03-21T09:02:54.309Z,99781.63
2023-03-21T09:05:21.836Z,99779.53
2023-03-21T09:07:49.447Z,99780.81
2023-03-21T09:10:23.078Z,99779.00
2023-03-21T09:12:51.836Z,99778.94
2023-03-21T09:15:19.685Z,99779.22
2023-03-21T09:17:47.383Z,99787.25
2023-03-21T09:20:14.809Z,99777.00
2023-03-21T09:22:42.875Z,99784.91
2023-03-21T09:25:10.120Z,99785.34
2023-03-21T09:27:38.840Z,99780.03
2023-03-21T09:30:07.307Z,99781.53
2023-03-21T09:32:34.515Z,99781.47
2023-03-21T09:35:01.716Z,99785.50
2023-03-21T09:37:28.919Z,99781.53
2023-03-21T09:39:56.147Z,99777.72
2023-03-21T09:42:34.344Z,99773.47
2023-03-21T09:45:12.021Z,99779.50
2023-03-21T09:47:43.793Z,99771.00
2023-03-21T09:50:15.388Z,99773.16
2023-03-21T09:52:45.735Z,99760.97
2023-03-21T09:55:17.283Z,99771.38
2023-03-21T09:57:45.202Z,99773.97
2023-03-21T10:00:20.301Z,99772.28
2023-03-21T10:02:48.912Z,99775.22
2023-03-21T10:05:18.816Z,99769.13
2023-03-21T10:07:50.917Z,99765.59
2023-03-21T10:10:21.718Z,99768.97
2023-03-21T10:12:52.561Z,99770.66
2023-03-21T10:15:23.001Z,99779.75
2023-03-21T10:17:55.723Z,99782.50
2023-03-21T10:20:24.428Z,99770.47
2023-03-21T10:22:54.127Z,99775.09
2023-03-21T10:25:26.201Z,99778.06
2023-03-21T10:27:53.808Z,99775.81
2023-03-21T10:30:35.439Z,99772.66
2023-03-21T10:33:06.184Z,99776.69
2023-03-21T10:35:34.309Z,99767.19
2023-03-21T10:38:01.603Z,99774.53
2023-03-21T10:40:34.166Z,99767.53
2023-03-21T10:43:18.226Z,99761.19
2023-03-21T10:45:48.107Z,99773.47
2023-03-21T10:48:15.834Z,99774.78
2023-03-21T10:50:46.149Z,99766.31
2023-03-21T10:53:19.050Z,99773.72
2023-03-21T10:55:48.661Z,99769.25
2023-03-21T10:58:20.059Z,99765.47
2023-03-21T11:00:48.778Z,99770.56
2023-03-21T11:03:22.476Z,99766.13
2023-03-21T11:05:55.237Z,99764.38
2023-03-21T11:08:22.542Z,99757.81
2023-03-21T11:11:01.747Z,99764.34
2023-03-21T11:13:34.495Z,99756.09
2023-03-21T11:16:08.189Z,99750.41
2023-03-21T11:18:41.632Z,99755.00
2023-03-21T11:21:10.928Z,99753.97
2023-03-21T11:23:41.781Z,99755.00
2023-03-21T11:26:11.766Z,99748.91
2023-03-21T11:28:41.398Z,99753.56
2023-03-21T11:31:10.132Z,99752.09
2023-03-21T11:33:39.059Z,99755.41
2023-03-21T11:36:24.228Z,99756.63
2023-03-21T11:38:53.515Z,99755.97
2023-03-21T11:41:24.507Z,99745.13
2023-03-21T11:43:53.210Z,99744.50
2023-03-21T11:46:25.834Z,99736.72
2023-03-21T11:48:53.361Z,99737.56
2023-03-21T11:51:28.306Z,99740.03
2023-03-21T11:54:03.115Z,99731.38
2023-03-21T11:56:35.394Z,99726.91
2023-03-21T11:59:21.151Z,99727.69
2023-03-21T12:02:01.304Z,99728.69
2023-03-21T12:04:40.339Z,99720.03
2023-03-21T12:07:22.197Z,99718.41
2023-03-21T12:09:54.901Z,99714.41
2023-03-21T12:12:38.771Z,99722.66
2023-03-21T12:15:16.150Z,99713.41
2023-03-21T12:17:54.619Z,99711.66
2023-03-21T12:20:32.650Z,99721.63
2023-03-21T12:23:14.828Z,99711.41
2023-03-21T12:25:47.499Z,99706.09
2023-03-21T12:28:32.676Z,99694.47
2023-03-21T12:31:09.285Z,99702.44
2023-03-21T12:33:48.724Z,99693.34
2023-03-21T12:36:41.700Z,99691.28
2023-03-21T12:39:22.970Z,99696.41
2023-03-21T12:42:00.466Z,99689.22
2023-03-21T12:44:31.668Z,99702.13
2023-03-21T12:47:02.799Z,99690.50
2023-03-21T12:49:35.391Z,99683.44
2023-03-21T12:52:06.484Z,99679.84
2023-03-21T12:54:39.258Z,99682.59
2023-03-21T12:57:10.469Z,99682.22
2023-03-21T12:59:44.018Z,99686.44
2023-03-21T13:02:20.124Z,99685.50
2023-03-21T13:05:01.210Z,99685.91
2023-03-21T13:07:34.172Z,99678.13
2023-03-21T13:10:11.652Z,99683.72
2023-03-21T13:12:47.982Z,99672.75
2023-03-21T13:15:45.239Z,99674.66
2023-03-21T13:18:20.756Z,99671.03
2023-03-21T13:20:52.549Z,99671.88
2023-03-21T13:23:21.244Z,99668.28
2023-03-21T13:25:50.131Z,99659.53
2023-03-21T13:28:21.155Z,99660.28
2023-03-21T13:30:49.543Z,99664.69
2023-03-21T13:33:22.116Z,99669.59
2023-03-21T13:36:00.118Z,99663.25
2023-03-21T13:38:29.272Z,99663.81
2023-03-21T13:40:59.211Z,99665.25
2023-03-21T13:43:42.607Z,99665.13
2023-03-21T13:46:12.023Z,99656.84
2023-03-21T13:49:00.184Z,99654.00
2023-03-21T13:51:45.772Z,99649.81
2023-03-21T13:54:22.956Z,99652.84
2023-03-21T13:56:54.146Z,99652.16
2023-03-21T13:59:38.274Z,99660.22
2023-03-21T14:02:23.122Z,99641.22
2023-03-21T14:05:05.398Z,99648.34
2023-03-21T14:07:39.820Z,99647.41
2023-03-21T14:10:18.798Z,99635.44
2023-03-21T14:12:46.485Z,99635.91
2023-03-21T14:15:19.244Z,99636.34
2023-03-21T14:17:50.873Z,99627.69
2023-03-21T14:20:21.512Z,99634.34
2023-03-21T14:22:50.372Z,99629.84
2023-03-21T14:25:20.185Z,99625.63
2023-03-21T14:27:49.722Z,99629.53
2023-03-21T14:30:23.183Z,99630.19
2023-03-21T14:32:50.503Z,99627.50
2023-03-21T14:35:17.710Z,99628.50
2023-03-21T14:37:46.992Z,99629.16
2023-03-21T14:40:23.206Z,99629.53
2023-03-21T14:42:51.558Z,99634.47
2023-03-21T14:45:21.392Z,99629.41
2023-03-21T14:47:56.035Z,99615.91
2023-03-21T14:50:28.078Z,99622.88
2023-03-21T14:52:55.567Z,99614.22
2023-03-21T14:55:24.538Z,99611.31
2023-03-21T14:57:52.071Z,99615.03
2023-03-21T15:00:24.808Z,99599.88
2023-03-21T15:02:53.673Z,99601.97
2023-03-21T15:05:25.286Z,99596.50
2023-03-21T15:07:55.042Z,99588.19
2023-03-21T15:10:24.260Z,99587.16
2023-03-21T15:12:53.712Z,99581.84
2023-03-21T15:15:23.387Z,99583.66
2023-03-21T15:17:52.365Z,99580.56
2023-03-21T15:20:22.442Z,99584.34
2023-03-21T15:22:54.063Z,99576.59
2023-03-21T15:25:26.595Z,99570.03
2023-03-21T15:27:55.464Z,99568.41
2023-03-21T15:30:25.050Z,99567.19
2023-03-21T15:32:52.518Z,99560.56
2023-03-21T15:35:25.234Z,99562.03
2023-03-21T15:37:55.155Z,99569.06
2023-03-21T15:40:26.374Z,99566.75
2023-03-21T15:43:05.260Z,99567.22
2023-03-21T15:45:32.519Z,99566.84
2023-03-21T15:48:01.845Z,99575.88
2023-03-21T15:50:34.739Z,99560.66
2023-03-21T15:53:04.906Z,99558.97
2023-03-21T15:55:42.342Z,99559.13
2023-03-21T15:58:15.219Z,99548.22
2023-03-21T16:00:44.256Z,99545.50
2023-03-21T16:03:15.692Z,99534.13
2023-03-21T16:05:43.135Z,99548.81
2023-03-21T16:08:20.198Z,99553.97
2023-03-21T16:10:48.875Z,99563.78
2023-03-21T16:13:16.062Z,99567.16
2023-03-21T16:15:43.767Z,99571.28
2023-03-21T16:18:14.614Z,99562.78
2023-03-21T16:20:44.190Z,99568.22
2023-03-21T16:23:12.199Z,99569.41
2023-03-21T16:25:40.416Z,99562.78
2023-03-21T16:28:14.101Z,99576.09
2023-03-21T16:30:41.342Z,99566.19
2023-03-21T16:33:10.531Z,99559.22
2023-03-21T16:35:37.874Z,99552.28
2023-03-21T16:38:05.092Z,99545.69
2023-03-21T16:40:36.046Z,99535.72
2023-03-21T16:43:04.621Z,99533.63
2023-03-21T16:45:33.342Z,99523.75
2023-03-21T16:48:00.654Z,99530.63
2023-03-21T16:50:30.744Z,99525.75
2023-03-21T16:52:58.291Z,99539.53
2023-03-21T16:55:25.892Z,99532.00
2023-03-21T16:57:53.688Z,99530.84
2023-03-21T17:00:23.762Z,99540.66
2023-03-21T17:02:52.795Z,99537.50
2023-03-21T17:05:21.075Z,99541.44
2023-03-21T17:07:48.558Z,99545.47
2023-03-21T17:10:19.288Z,99540.56
2023-03-21T17:12:46.830Z,99539.91
2023-03-21T17:15:14.754Z,99544.31
2023-03-21T17:17:41.962Z,99538.38
2023-03-21T17:20:21.423Z,99536.88
2023-03-21T17:22:48.898Z,99536.88
2023-03-21T17:25:17.058Z,99529.41
2023-03-21T17:27:45.033Z,99532.53
2023-03-21T17:30:21.489Z,99526.41
2023-03-21T17:32:49.074Z,99530.34
2023-03-21T17:35:18.654Z,99526.97
2023-03-21T17:37:46.860Z,99518.97
2023-03-21T17:40:14.086Z,99513.41
2023-03-21T17:42:41.239Z,99508.19
2023-03-21T17:45:09.370Z,99506.84
2023-03-21T17:47:37.133Z,99521.84
2023-03-21T17:50:05.241Z,99520.69
2023-03-21T17:52:33.741Z,99518.44
2023-03-21T17:55:00.951Z,99529.59
2023-03-21T17:57:28.115Z,99530.09
2023-03-21T17:59:55.304Z,99533.47
2023-03-21T18:02:22.543Z,99522.94
2023-03-21T18:04:49.799Z,99521.78
2023-03-21T18:07:28.694Z,99518.59
2023-03-21T18:10:06.871Z,99521.47
2023-03-21T18:12:34.099Z,99523.94
2023-03-21T18:15:01.517Z,99518.69
2023-03-21T18:17:28.730Z,99515.25
2023-03-21T18:19:55.899Z,99513.09
2023-03-21T18:22:23.054Z,99525.22
2023-03-21T18:24:50.298Z,99530.00
2023-03-21T18:27:19.042Z,99536.66
2023-03-21T18:32:33.621Z,99534.16
2023-03-21T18:35:00.995Z,99535.53
2023-03-21T18:37:30.409Z,99540.13
2023-03-21T18:39:58.457Z,99541.50
2023-03-21T18:42:30.696Z,99534.19
2023-03-21T18:44:58.306Z,99531.53
2023-03-21T18:47:25.501Z,99545.78
2023-03-21T18:52:39.972Z,99559.22
2023-03-21T18:55:08.986Z,99551.94
2023-03-21T18:57:38.834Z,99554.66
2023-03-21T19:00:08.786Z,99549.53
2023-03-21T19:02:41.935Z,99546.47
2023-03-21T19:05:13.122Z,99546.13
2023-03-21T19:07:40.314Z,99541.34
2023-03-21T19:10:23.558Z,99545.78
2023-03-21T19:12:53.115Z,99551.03
2023-03-21T19:15:21.732Z,99545.59
2023-03-21T19:20:38.563Z,99541.78
2023-03-21T19:23:05.913Z,99544.28
2023-03-21T19:25:33.200Z,99542.94
2023-03-21T19:28:01.772Z,99543.44
2023-03-21T19:30:29.218Z,99551.53
2023-03-21T19:32:56.440Z,99550.91
2023-03-21T19:35:23.830Z,99556.00
2023-03-21T19:37:51.023Z,99555.16
2023-03-21T19:40:18.243Z,99560.72
2023-03-21T19:42:45.901Z,99562.81
2023-03-21T19:45:14.477Z,99571.31
2023-03-21T19:47:41.717Z,99555.03
2023-03-21T19:52:57.277Z,99553.16
2023-03-21T19:55:25.337Z,99548.75
2023-03-21T19:57:52.540Z,99548.59
2023-03-21T20:00:22.634Z,99551.81
2023-03-21T20:02:50.160Z,99544.69
2023-03-21T20:05:19.077Z,99560.34
2023-03-21T20:07:46.472Z,99555.25
2023-03-21T20:10:14.091Z,99555.59
2023-03-21T20:12:41.319Z,99550.50
2023-03-21T20:15:17.813Z,99553.22
2023-03-21T20:17:49.058Z,99559.88
2023-03-21T20:20:17.544Z,99561.72
2023-03-21T20:23:06.098Z,99563.78
2023-03-21T20:25:34.281Z,99568.53
2023-03-21T20:28:15.264Z,99574.84
2023-03-21T20:30:45.897Z,99574.31
2023-03-21T20:33:14.577Z,99569.56
2023-03-21T20:38:29.005Z,99571.59
2023-03-21T20:40:56.496Z,99568.72
2023-03-21T20:44:11.702Z,99587.72
2023-03-21T20:46:12.579Z,99582.66
2023-03-21T20:48:41.395Z,99583.00
2023-03-21T20:52:14.833Z,99570.44
2023-03-21T20:53:57.917Z,99567.88
2023-03-21T20:56:25.171Z,99556.66
2023-03-21T20:59:07.985Z,99551.06
2023-03-21T21:01:39.451Z,99551.22
2023-03-21T21:04:09.451Z,99551.22
2023-03-21T21:06:36.877Z,99550.91
2023-03-21T21:09:04.199Z,99552.78
2023-03-21T21:14:18.557Z,99544.97
2023-03-21T21:16:46.013Z,99542.41
2023-03-21T21:19:14.638Z,99546.31
2023-03-21T21:21:41.857Z,99541.72
2023-03-21T21:24:09.111Z,99543.44
2023-03-21T21:26:36.299Z,99543.06
2023-03-21T21:29:03.510Z,99540.72
2023-03-21T21:31:30.843Z,99543.94
2023-03-21T21:33:58.255Z,99533.06
2023-03-21T21:36:26.880Z,99533.56
2023-03-21T21:38:54.594Z,99528.31
2023-03-21T21:41:23.136Z,99519.16
2023-03-21T21:43:50.459Z,99518.13
2023-03-21T21:46:17.664Z,99530.84
2023-03-21T21:48:44.829Z,99531.53
2023-03-21T21:51:12.108Z,99533.56
2023-03-21T21:53:40.599Z,99535.78
2023-03-21T21:56:08.983Z,99535.78
2023-03-21T21:58:36.214Z,99532.38
2023-03-21T22:01:03.510Z,99532.22
2023-03-21T22:03:30.737Z,99529.50
2023-03-21T22:06:02.974Z,99537.47
2023-03-21T22:08:30.148Z,99532.91
2023-03-21T22:10:59.719Z,99545.13
2023-03-21T22:13:27.162Z,99540.38
2023-03-21T22:15:54.570Z,99534.44
2023-03-21T22:18:22.050Z,99534.09
2023-03-21T22:20:49.282Z,99536.44
2023-03-21T22:23:16.444Z,99535.09
2023-03-21T22:25:49.472Z,99529.50
2023-03-21T22:28:17.966Z,99535.94
2023-03-21T22:30:45.139Z,99537.47
2023-03-21T22:33:12.334Z,99534.25
2023-03-21T22:35:39.637Z,99536.66
2023-03-21T22:38:06.849Z,99531.03
2023-03-21T22:40:34.052Z,99521.00
2023-03-21T22:43:01.240Z,99517.47
2023-03-21T22:45:29.795Z,99527.31
2023-03-21T22:47:57.035Z,99525.78
2023-03-21T22:50:24.265Z,99521.16
2023-03-21T22:52:51.462Z,99517.97
2023-03-21T22:55:18.737Z,99517.28
2023-03-21T22:57:45.901Z,99519.47
2023-03-21T23:00:14.050Z,99525.25
2023-03-21T23:02:42.664Z,99517.25
2023-03-21T23:05:10.301Z,99517.97
2023-03-21T23:07:37.984Z,99513.19
2023-03-21T23:10:06.320Z,99517.63
2023-03-21T23:12:33.598Z,99514.75
2023-03-21T23:15:02.278Z,99518.66
2023-03-21T23:17:29.728Z,99516.25
2023-03-21T23:19:58.286Z,99513.19
2023-03-21T23:22:25.444Z,99509.47
2023-03-21T23:24:52.609Z,99511.47
2023-03-21T23:27:19.859Z,99503.31
2023-03-21T23:29:47.144Z,99508.41
2023-03-21T23:32:14.481Z,99498.25
2023-03-21T23:34:41.659Z,99503.13
2023-03-21T23:37:10.183Z,99506.03
2023-03-21T23:39:38.161Z,99500.63
2023-03-21T23:42:05.858Z,99502.97
2023-03-21T23:44:33.090Z,99506.22
2023-03-21T23:47:00.368Z,99503.00
2023-03-21T23:49:27.611Z,99496.22
2023-03-21T23:51:54.827Z,99501.47
2023-03-21T23:54:23.374Z,99501.66
2023-03-21T23:56:50.589Z,99503.34
2023-03-21T23:59:17.817Z,99493.00
